Terminal Aerodrome Forecast
Issued by NWS Charleston, WV

Current Version | Previous Version | Graphics & Text | Print | Product List | Glossary On
Versions: 1 2 3 4 5 6 7 8 9 10 11 12 13 14 15 16 17 18 19 20 21 22 23 24 25 26
000
FTUS41 KRLX 280200 AAA
TAFPKB
TAF AMD
KPKB 280227Z 2802/2824 VRB04KT P6SM FEW035
     FM280500 01004KT 5SM BR SCT025
     FM280700 00000KT 2SM BR SKC
     FM280800 00000KT 1/2SM FG VV001
     FM281300 VRB03KT 3SM BR BKN001
     FM281330 VRB03KT P6SM FEW045=

USA.gov is the U.S. government's official web portal to all federal, state and local government web resources and services.